Time;durP1;ratioP1;P1;durP2;ratioP2;P2;SDS_P1;SDS_P2;PMS_P1;PMS_P2;Temp;Humidity;BMP_temperature;BMP_pressure;BME280_temperature;BME280_humidity;BME280_pressure;Samples;Min_cycle;Max_cycle;Signal;HPM_P1;HPM_P2
2022/05/12 00:00:06;;;;;;;15.70;9.37;;;14.80;99.90;;;;;;5076161;28;20204;-87
2022/05/12 00:02:33;;;;;;;15.03;9.70;;;14.60;99.90;;;;;;5075773;28;20209;-88
2022/05/12 00:05:00;;;;;;;19.87;10.53;;;14.50;99.90;;;;;;5075669;28;20197;-87
2022/05/12 00:07:27;;;;;;;16.67;9.63;;;14.50;99.90;;;;;;5075865;28;20266;-87
2022/05/12 00:09:54;;;;;;;18.63;10.00;;;14.40;99.90;;;;;;5075772;28;20633;-87
2022/05/12 00:12:20;;;;;;;16.63;9.80;;;14.50;99.90;;;;;;5075365;28;20228;-88
2022/05/12 00:14:49;;;;;;;13.50;9.10;;;14.60;99.90;;;;;;5075464;28;20197;-88
2022/05/12 00:17:15;;;;;;;18.13;8.80;;;14.50;99.90;;;;;;5075586;28;20208;-87
2022/05/12 00:19:42;;;;;;;16.23;8.00;;;14.50;99.90;;;;;;5075605;28;20202;-88
2022/05/12 00:22:09;;;;;;;17.90;7.40;;;14.50;99.90;;;;;;5075615;28;20201;-89
2022/05/12 00:24:36;;;;;;;15.87;8.27;;;14.50;99.90;;;;;;5075503;28;20554;-88
2022/05/12 00:27:03;;;;;;;16.17;8.53;;;14.50;99.90;;;;;;5075305;28;20205;-88
2022/05/12 00:29:30;;;;;;;12.37;7.63;;;14.50;99.90;;;;;;5075635;28;20211;-89
2022/05/12 00:31:58;;;;;;;13.33;7.90;;;14.40;99.90;;;;;;5075112;28;20228;-87
2022/05/12 00:34:25;;;;;;;14.57;6.97;;;14.30;99.90;;;;;;5075128;28;20668;-89
2022/05/12 00:36:52;;;;;;;16.20;7.80;;;14.30;99.90;;;;;;5075125;28;20210;-89
2022/05/12 00:39:19;;;;;;;13.40;6.73;;;14.20;99.90;;;;;;5075281;28;20212;-88
2022/05/12 00:41:46;;;;;;;13.50;6.53;;;14.30;99.90;;;;;;5074868;28;20203;-87
2022/05/12 00:44:15;;;;;;;17.23;7.10;;;14.30;99.90;;;;;;5075237;28;20210;-87
2022/05/12 00:46:49;;;;;;;14.57;6.97;;;14.30;99.90;;;;;;5073956;28;20210;-88
2022/05/12 00:49:22;;;;;;;14.97;6.37;;;14.20;99.90;;;;;;5075568;28;20199;-88
2022/05/12 00:51:53;;;;;;;13.33;6.47;;;14.10;99.90;;;;;;5075009;28;20239;-88
2022/05/12 00:54:23;;;;;;;14.53;6.63;;;14.00;99.90;;;;;;5075007;28;20573;-88
2022/05/12 00:56:51;;;;;;;17.20;6.63;;;14.00;99.90;;;;;;5074376;28;20214;-88
2022/05/12 00:59:23;;;;;;;17.33;6.67;;;14.00;99.90;;;;;;5074853;28;20199;-87
2022/05/12 01:01:50;;;;;;;12.93;6.47;;;14.10;99.90;;;;;;5074374;28;20215;-88
2022/05/12 01:04:19;;;;;;;15.95;7.65;;;14.00;99.90;;;;;;5073862;28;20435;-87
2022/05/12 01:06:46;;;;;;;17.70;6.70;;;14.00;99.90;;;;;;5074782;28;20198;-88
2022/05/12 01:09:14;;;;;;;20.87;6.63;;;14.00;99.90;;;;;;5075039;28;20208;-89
2022/05/12 01:11:42;;;;;;;13.90;6.70;;;13.90;99.90;;;;;;5073959;28;20225;-87
2022/05/12 01:14:10;;;;;;;12.90;5.60;;;13.90;99.90;;;;;;5074351;28;20208;-87
2022/05/12 01:16:42;;;;;;;20.23;6.13;;;13.80;99.90;;;;;;5074233;28;20194;-87
2022/05/12 01:19:12;;;;;;;17.83;6.30;;;13.80;99.90;;;;;;5074459;28;20207;-87
2022/05/12 01:21:40;;;;;;;13.20;5.73;;;13.90;99.90;;;;;;5074198;28;20305;-87
2022/05/12 01:24:09;;;;;;;16.60;5.73;;;13.80;99.90;;;;;;5074213;28;20205;-87
2022/05/12 01:26:36;;;;;;;17.13;5.87;;;13.80;99.90;;;;;;5074164;28;20214;-87
2022/05/12 01:29:04;;;;;;;14.87;6.23;;;13.80;99.90;;;;;;5074074;28;20210;-86
2022/05/12 01:31:31;;;;;;;13.67;5.90;;;13.80;99.90;;;;;;5074580;28;20207;-87
2022/05/12 01:33:58;;;;;;;14.43;5.67;;;13.70;99.90;;;;;;5074433;28;20222;-87
2022/05/12 01:36:25;;;;;;;13.37;6.00;;;13.60;99.90;;;;;;5074224;28;20228;-88
2022/05/12 01:38:52;;;;;;;16.57;6.00;;;13.60;99.90;;;;;;5074109;28;20296;-87
2022/05/12 01:41:23;;;;;;;13.63;5.37;;;13.50;99.90;;;;;;5074268;28;20206;-87
2022/05/12 01:43:50;;;;;;;12.83;5.57;;;13.50;99.90;;;;;;5074277;28;20665;-88
2022/05/12 01:46:16;;;;;;;16.60;6.80;;;13.50;99.90;;;;;;5074024;28;20211;-87
2022/05/12 01:48:43;;;;;;;16.87;5.70;;;13.50;99.90;;;;;;5074268;28;20211;-87
2022/05/12 01:51:12;;;;;;;18.05;6.60;;;13.40;99.90;;;;;;5073899;28;20427;-87
2022/05/12 01:53:39;;;;;;;14.53;5.60;;;13.30;99.90;;;;;;5073918;28;20694;-89
2022/05/12 01:56:08;;;;;;;22.50;6.63;;;13.30;99.90;;;;;;5074027;28;20202;-88
2022/05/12 01:58:36;;;;;;;15.13;6.00;;;13.20;99.90;;;;;;5073306;28;20206;-89
2022/05/12 02:01:03;;;;;;;16.83;6.33;;;13.20;99.90;;;;;;5073564;28;20227;-89
2022/05/12 02:03:31;;;;;;;15.87;6.23;;;13.20;99.90;;;;;;5074268;28;20203;-88
2022/05/12 02:05:57;;;;;;;14.10;5.43;;;13.10;99.90;;;;;;5077180;28;20203;-88
2022/05/12 02:08:25;;;;;;;14.83;5.43;;;13.10;99.90;;;;;;5076060;28;20209;-88
2022/05/12 02:10:53;;;;;;;11.23;5.13;;;13.10;99.90;;;;;;5072617;28;20207;-88
2022/05/12 02:13:25;;;;;;;18.07;5.87;;;13.10;99.90;;;;;;5071406;28;20261;-88
2022/05/12 02:15:54;;;;;;;18.00;6.75;;;13.10;99.90;;;;;;5073192;28;20432;-88
2022/05/12 02:18:22;;;;;;;13.67;5.60;;;13.00;99.90;;;;;;5074483;28;20210;-88
2022/05/12 02:20:49;;;;;;;17.33;5.87;;;13.00;99.90;;;;;;5073885;28;20206;-87
2022/05/12 02:23:18;;;;;;;16.27;5.10;;;13.00;99.90;;;;;;5073523;28;20218;-88
2022/05/12 02:25:45;;;;;;;15.27;4.97;;;12.90;99.90;;;;;;5074051;28;20206;-88
2022/05/12 02:28:12;;;;;;;19.23;6.23;;;12.90;99.90;;;;;;5073389;28;20207;-88
2022/05/12 02:30:39;;;;;;;20.70;6.40;;;12.90;99.90;;;;;;5073596;28;20206;-89
2022/05/12 02:33:11;;;;;;;15.47;4.90;;;12.90;99.90;;;;;;5073584;28;20231;-89
2022/05/12 02:35:39;;;;;;;15.20;5.77;;;12.90;99.90;;;;;;5073738;28;20272;-88
2022/05/12 02:38:06;;;;;;;17.83;5.40;;;12.80;99.90;;;;;;5073361;28;20205;-88
2022/05/12 02:40:33;;;;;;;18.27;6.40;;;12.90;99.90;;;;;;5073004;28;20423;-88
2022/05/12 02:43:00;;;;;;;11.73;5.43;;;13.00;99.90;;;;;;5073213;28;20639;-88
2022/05/12 02:45:29;;;;;;;17.00;5.03;;;12.80;99.90;;;;;;5073342;28;20223;-87
2022/05/12 02:47:56;;;;;;;17.03;5.80;;;12.70;99.90;;;;;;5073139;28;20203;-87
2022/05/12 02:50:25;;;;;;;15.80;5.50;;;12.70;99.90;;;;;;5073329;28;20214;-87
2022/05/12 02:52:52;;;;;;;14.80;5.77;;;12.70;99.90;;;;;;5072793;28;20236;-87
2022/05/12 02:55:19;;;;;;;20.27;5.53;;;12.80;99.90;;;;;;5072962;28;20708;-87
2022/05/12 02:57:46;;;;;;;11.77;5.83;;;12.80;99.90;;;;;;5073137;28;20205;-87
2022/05/12 03:00:18;;;;;;;13.70;5.33;;;12.80;99.90;;;;;;5073045;28;20202;-87
2022/05/12 03:02:46;;;;;;;17.57;5.10;;;12.80;99.90;;;;;;5073466;28;20233;-88
2022/05/12 03:05:13;;;;;;;15.73;6.47;;;12.90;99.90;;;;;;5072190;28;20444;-88
2022/05/12 03:07:41;;;;;;;19.63;5.70;;;13.00;99.90;;;;;;5072831;28;20215;-87
2022/05/12 03:10:10;;;;;;;14.10;5.13;;;13.00;99.90;;;;;;5074819;28;20204;-87
2022/05/12 03:12:37;;;;;;;14.53;4.77;;;13.00;99.90;;;;;;5076415;28;20229;-87
2022/05/12 03:15:06;;;;;;;17.83;5.37;;;13.00;99.90;;;;;;5076353;28;20232;-87
2022/05/12 03:17:33;;;;;;;13.50;4.93;;;13.00;99.90;;;;;;5078002;28;20202;-86
2022/05/12 03:20:00;;;;;;;12.93;5.13;;;13.00;99.90;;;;;;5083757;28;20232;-87
2022/05/12 03:22:27;;;;;;;15.60;4.90;;;13.00;99.90;;;;;;5083827;28;20206;-87
2022/05/12 03:24:55;;;;;;;11.03;4.63;;;12.70;99.90;;;;;;5082318;28;20270;-87
2022/05/12 03:27:22;;;;;;;15.77;5.67;;;12.90;99.90;;;;;;5084061;28;20215;-87
2022/05/12 03:29:48;;;;;;;17.23;5.47;;;12.80;99.90;;;;;;5083623;28;20219;-88
2022/05/12 03:32:15;;;;;;;19.03;6.40;;;12.70;99.90;;;;;;5081645;28;20221;-88
2022/05/12 03:34:43;;;;;;;18.57;5.77;;;12.60;99.90;;;;;;5076165;28;20213;-87
2022/05/12 03:37:11;;;;;;;18.37;5.90;;;12.50;99.90;;;;;;5076115;28;20244;-88
2022/05/12 03:39:39;;;;;;;15.23;5.83;;;12.40;99.90;;;;;;5076286;28;20198;-87
2022/05/12 03:42:08;;;;;;;21.67;6.20;;;12.30;99.90;;;;;;5076278;28;20282;-87
2022/05/12 03:44:47;;;;;;;14.90;5.73;;;12.20;99.90;;;;;;5076050;28;20252;-87
2022/05/12 03:47:14;;;;;;;13.70;6.50;;;12.20;99.90;;;;;;5076140;28;20213;-87
2022/05/12 03:49:41;;;;;;;18.10;6.90;;;12.20;99.90;;;;;;5080885;28;20193;-90
2022/05/12 03:52:09;;;;;;;14.10;6.43;;;12.20;99.90;;;;;;5081426;28;20256;-88
2022/05/12 03:54:36;;;;;;;17.93;6.40;;;12.30;99.90;;;;;;5080492;28;20224;-88
2022/05/12 03:57:04;;;;;;;18.07;6.67;;;12.30;99.90;;;;;;5080785;28;20206;-87
2022/05/12 03:59:32;;;;;;;15.67;6.30;;;12.30;99.90;;;;;;5079674;28;20210;-88
2022/05/12 04:01:59;;;;;;;22.50;6.60;;;12.30;99.90;;;;;;5080881;28;20215;-88
2022/05/12 04:04:26;;;;;;;19.03;7.17;;;12.20;99.90;;;;;;5076363;28;20285;-87
2022/05/12 04:06:53;;;;;;;22.27;7.33;;;12.30;99.90;;;;;;5075946;28;20205;-87
2022/05/12 04:09:20;;;;;;;21.17;6.93;;;12.30;99.90;;;;;;5076067;28;20213;-87
2022/05/12 04:11:48;;;;;;;20.40;7.07;;;12.30;99.90;;;;;;5075356;28;20668;-87
2022/05/12 04:14:15;;;;;;;15.60;7.27;;;12.40;99.90;;;;;;5075220;28;20263;-86
2022/05/12 04:16:44;;;;;;;19.67;7.10;;;12.30;99.90;;;;;;5074339;28;20714;-87
2022/05/12 04:19:11;;;;;;;14.17;6.90;;;12.30;99.90;;;;;;5076808;28;20190;-87
2022/05/12 04:21:38;;;;;;;20.57;7.80;;;12.20;99.90;;;;;;5077404;28;20217;-87
2022/05/12 04:24:06;;;;;;;19.03;7.00;;;12.20;99.90;;;;;;5075882;28;20212;-87
2022/05/12 04:26:34;;;;;;;15.97;7.40;;;12.20;99.90;;;;;;5076666;28;20210;-87
2022/05/12 04:29:02;;;;;;;17.40;6.60;;;12.20;99.90;;;;;;5076654;28;20204;-88
2022/05/12 04:31:29;;;;;;;13.73;6.40;;;12.30;99.90;;;;;;5076784;28;20202;-87
2022/05/12 04:36:42;;;;;;;23.60;6.90;;;12.30;99.90;;;;;;5075529;28;20201;-87
2022/05/12 04:39:09;;;;;;;19.93;7.50;;;12.20;99.90;;;;;;5073702;28;20210;-87
2022/05/12 04:41:37;;;;;;;16.47;7.73;;;12.30;99.90;;;;;;5075040;28;20186;-88
2022/05/12 04:44:05;;;;;;;18.13;8.37;;;12.30;99.90;;;;;;5075668;28;20197;-86
2022/05/12 04:46:34;;;;;;;14.83;7.33;;;12.30;99.90;;;;;;5074561;28;20347;-87
2022/05/12 04:49:03;;;;;;;14.90;7.33;;;12.40;99.90;;;;;;5074694;28;20552;-88
2022/05/12 04:51:31;;;;;;;20.53;8.17;;;12.40;99.90;;;;;;5076392;28;20201;-87
2022/05/12 04:54:00;;;;;;;18.80;7.93;;;12.50;99.90;;;;;;5078372;28;20225;-87
2022/05/12 04:56:26;;;;;;;18.90;7.67;;;12.40;99.90;;;;;;5074510;28;20216;-86
2022/05/12 04:58:54;;;;;;;19.43;7.87;;;12.50;99.90;;;;;;5074707;28;20196;-86
2022/05/12 05:01:22;;;;;;;21.17;8.20;;;12.50;99.90;;;;;;5077826;28;20604;-87
2022/05/12 05:03:49;;;;;;;21.30;8.23;;;12.60;99.90;;;;;;5074406;28;20293;-86
2022/05/12 05:06:17;;;;;;;18.67;7.27;;;12.50;99.90;;;;;;5073511;28;20208;-87
2022/05/12 05:08:44;;;;;;;16.97;6.97;;;12.70;99.90;;;;;;5075558;28;20205;-86
2022/05/12 05:11:11;;;;;;;15.27;7.03;;;12.70;99.90;;;;;;5074315;28;20202;-86
2022/05/12 05:13:37;;;;;;;18.67;7.37;;;12.80;99.90;;;;;;5073953;28;20229;-84
2022/05/12 05:16:06;;;;;;;15.67;7.77;;;12.80;99.90;;;;;;5074232;28;20626;-85
2022/05/12 05:18:33;;;;;;;19.90;7.10;;;12.80;99.90;;;;;;5074146;28;20563;-86
2022/05/12 05:20:59;;;;;;;17.43;8.37;;;12.80;99.90;;;;;;5074650;28;20210;-86
2022/05/12 05:23:28;;;;;;;14.67;7.30;;;12.80;99.90;;;;;;5074546;28;20206;-86
2022/05/12 05:25:54;;;;;;;22.63;8.63;;;12.90;99.90;;;;;;5074169;28;20216;-86
2022/05/12 05:28:21;;;;;;;16.37;7.07;;;12.90;99.90;;;;;;5074004;28;20211;-86
2022/05/12 05:30:49;;;;;;;20.37;7.57;;;12.90;99.90;;;;;;5077420;28;20205;-86
2022/05/12 05:33:18;;;;;;;21.00;8.07;;;12.80;99.90;;;;;;5083988;28;20283;-87
2022/05/12 05:35:45;;;;;;;18.87;8.03;;;12.70;99.90;;;;;;5084826;28;20202;-86
2022/05/12 05:38:12;;;;;;;15.77;7.73;;;12.70;99.90;;;;;;5083847;28;20212;-86
2022/05/12 05:40:40;;;;;;;23.47;7.60;;;12.90;99.90;;;;;;5082493;28;20235;-86
2022/05/12 05:43:07;;;;;;;16.60;7.93;;;13.00;99.90;;;;;;5085722;28;20284;-86
2022/05/12 05:45:34;;;;;;;19.20;8.37;;;12.90;99.90;;;;;;5094303;27;20209;-86
2022/05/12 05:48:05;;;;;;;22.27;8.30;;;12.80;99.90;;;;;;5093919;28;20202;-86
2022/05/12 05:53:23;;;;;;;18.10;8.07;;;12.90;99.90;;;;;;5094215;28;20579;-86
2022/05/12 05:53:26;;;;;;;20.58;9.48;;;12.90;99.90;;;;;;5093625;28;20499;-86
2022/05/12 05:55:56;;;;;;;14.80;8.03;;;12.90;99.90;;;;;;5093741;28;20213;-86
2022/05/12 05:58:24;;;;;;;18.60;7.67;;;12.90;99.90;;;;;;5088046;28;20269;-87
2022/05/12 06:00:51;;;;;;;13.83;8.13;;;13.00;99.90;;;;;;5075139;28;20202;-87
2022/05/12 06:03:18;;;;;;;15.33;7.73;;;12.90;99.90;;;;;;5073756;28;20657;-87
2022/05/12 06:05:46;;;;;;;16.80;8.30;;;12.90;99.90;;;;;;5074506;28;20205;-87
2022/05/12 06:08:15;;;;;;;16.33;7.83;;;13.00;99.90;;;;;;5073817;28;20212;-87
2022/05/12 06:10:42;;;;;;;14.70;8.33;;;13.00;99.90;;;;;;5073872;28;20213;-87
2022/05/12 06:13:11;;;;;;;20.03;7.87;;;13.10;99.90;;;;;;5073059;28;20246;-88
2022/05/12 06:15:39;;;;;;;19.10;8.00;;;13.20;99.90;;;;;;5073661;28;20211;-88
2022/05/12 06:18:10;;;;;;;16.53;8.43;;;13.20;99.90;;;;;;5073734;28;20213;-87
2022/05/12 06:20:38;;;;;;;14.13;6.87;;;13.10;99.90;;;;;;5074569;28;20213;-88
2022/05/12 06:23:05;;;;;;;19.47;8.37;;;13.10;99.90;;;;;;5075262;28;20219;-87
2022/05/12 06:25:32;;;;;;;14.00;7.50;;;13.20;99.90;;;;;;5073914;28;20207;-88
2022/05/12 06:27:58;;;;;;;12.87;7.03;;;13.20;99.90;;;;;;5074249;28;20198;-88
2022/05/12 06:30:29;;;;;;;16.60;7.40;;;13.30;99.90;;;;;;5073536;28;20220;-88
2022/05/12 06:32:56;;;;;;;18.17;7.57;;;13.30;99.90;;;;;;5073607;28;20232;-87
2022/05/12 06:35:24;;;;;;;13.97;6.83;;;13.50;99.90;;;;;;5073897;28;20210;-87
2022/05/12 06:37:55;;;;;;;24.00;7.40;;;13.70;99.90;;;;;;5073693;28;20207;-88
2022/05/12 06:40:23;;;;;;;13.17;6.90;;;13.90;99.90;;;;;;5073674;28;20201;-87
2022/05/12 06:42:51;;;;;;;13.67;7.53;;;14.00;99.90;;;;;;5073005;28;20661;-86
2022/05/12 06:45:21;;;;;;;14.10;7.13;;;13.90;99.90;;;;;;5076879;28;20228;-87
2022/05/12 06:47:51;;;;;;;12.20;6.00;;;13.90;99.90;;;;;;5077257;28;20208;-87
2022/05/12 06:50:20;;;;;;;16.53;6.93;;;13.80;99.90;;;;;;5077254;28;20201;-88
2022/05/12 06:52:47;;;;;;;17.07;7.10;;;13.90;99.90;;;;;;5077048;28;20249;-87
2022/05/12 06:55:15;;;;;;;16.27;7.47;;;14.10;99.90;;;;;;5076896;28;20232;-87
2022/05/12 06:57:42;;;;;;;10.83;6.83;;;14.20;99.90;;;;;;5075566;28;20206;-87
2022/05/12 07:00:13;;;;;;;14.73;6.67;;;14.30;99.90;;;;;;5076922;28;20212;-87
2022/05/12 07:02:40;;;;;;;15.57;7.20;;;14.50;99.90;;;;;;5076679;28;20676;-86
2022/05/12 07:05:09;;;;;;;12.43;6.57;;;14.50;99.90;;;;;;5078262;28;20220;-86
2022/05/12 07:07:37;;;;;;;16.77;7.63;;;14.40;99.90;;;;;;5075652;28;20510;-86
2022/05/12 07:10:05;;;;;;;11.57;6.87;;;14.50;99.90;;;;;;5076885;28;20205;-87
2022/05/12 07:12:33;;;;;;;11.83;6.17;;;14.60;99.90;;;;;;5084205;28;20208;-86
2022/05/12 07:15:00;;;;;;;15.20;6.63;;;14.70;99.90;;;;;;5084713;28;20769;-86
2022/05/12 07:17:27;;;;;;;10.27;5.50;;;14.90;99.90;;;;;;5087152;28;20219;-88
2022/05/12 07:26:35;;;;;;;15.40;6.53;;;15.00;99.90;;;;;;5083966;28;20645;-86
2022/05/12 07:28:15;;;;;;;11.83;5.50;;;15.10;99.90;;;;;;5095861;28;20209;-85
2022/05/12 07:33:27;;;;;;;15.23;5.40;;;15.20;99.90;;;;;;5096346;28;20303;-86
2022/05/12 07:35:54;;;;;;;12.57;5.17;;;15.20;99.90;;;;;;5096680;28;20205;-86
2022/05/12 07:38:23;;;;;;;8.73;4.20;;;15.30;99.90;;;;;;5097180;28;20205;-89
2022/05/12 07:40:50;;;;;;;11.93;4.47;;;15.40;99.90;;;;;;5096932;28;20208;-89
2022/05/12 07:43:17;;;;;;;8.97;5.30;;;15.40;99.90;;;;;;5096018;28;20205;-88
2022/05/12 07:45:44;;;;;;;10.33;5.00;;;15.50;99.90;;;;;;5096629;28;20236;-91
2022/05/12 07:48:12;;;;;;;7.90;4.47;;;15.60;99.90;;;;;;5098612;28;20209;-85
2022/05/12 07:50:40;;;;;;;11.30;5.00;;;15.70;99.90;;;;;;5098804;28;20208;-86
2022/05/12 07:53:07;;;;;;;9.10;5.00;;;15.80;99.90;;;;;;5096269;28;20249;-86
2022/05/12 07:55:35;;;;;;;12.43;4.63;;;16.00;99.90;;;;;;5095205;28;20805;-79
2022/05/12 07:58:03;;;;;;;9.17;4.57;;;16.10;99.90;;;;;;5096362;28;20213;-86
2022/05/12 08:00:30;;;;;;;10.43;4.57;;;16.00;99.90;;;;;;5095818;28;20649;-83
2022/05/12 08:02:57;;;;;;;7.20;4.10;;;16.00;99.90;;;;;;5095618;28;20197;-84
2022/05/12 08:05:25;;;;;;;13.87;4.77;;;15.90;99.90;;;;;;5095846;28;20185;-87
2022/05/12 08:07:54;;;;;;;8.80;2.87;;;16.20;99.90;;;;;;5095365;28;20212;-87
2022/05/12 08:10:22;;;;;;;7.70;3.80;;;16.30;99.90;;;;;;5095243;28;20668;-83
2022/05/12 08:12:50;;;;;;;6.53;3.80;;;16.20;99.90;;;;;;5094577;28;20199;-84
2022/05/12 08:15:18;;;;;;;8.27;4.17;;;16.00;99.90;;;;;;5095293;28;20225;-84
2022/05/12 08:17:46;;;;;;;12.07;3.83;;;15.90;99.90;;;;;;5096714;28;20208;-87
2022/05/12 08:20:14;;;;;;;13.67;3.80;;;16.10;99.90;;;;;;5095774;28;20565;-83
2022/05/12 08:22:41;;;;;;;7.67;3.80;;;16.30;99.90;;;;;;5095230;28;20229;-85
2022/05/12 08:25:09;;;;;;;9.63;3.50;;;16.50;99.90;;;;;;5094788;28;20202;-83
2022/05/12 08:27:36;;;;;;;13.60;4.00;;;16.50;99.90;;;;;;5094666;28;20195;-83
2022/05/12 08:30:05;;;;;;;9.30;4.00;;;16.60;99.90;;;;;;5095010;28;20238;-84
2022/05/12 08:32:32;;;;;;;10.07;3.97;;;16.60;99.90;;;;;;5094816;28;20678;-83
2022/05/12 08:34:59;;;;;;;5.40;3.03;;;16.90;99.90;;;;;;5094698;28;20602;-83
2022/05/12 08:37:26;;;;;;;5.13;3.30;;;17.00;99.90;;;;;;5094896;28;20211;-83
2022/05/12 08:39:54;;;;;;;5.93;3.33;;;16.90;99.90;;;;;;5094482;28;20208;-83
2022/05/12 08:42:27;;;;;;;10.43;3.40;;;17.00;99.90;;;;;;5094782;28;20502;-83
2022/05/12 08:44:59;;;;;;;14.30;4.17;;;17.20;99.90;;;;;;5094656;28;20220;-84
2022/05/12 08:47:32;;;;;;;10.70;3.20;;;17.70;99.90;;;;;;5094763;28;20304;-83
2022/05/12 08:50:00;;;;;;;9.73;2.80;;;17.80;99.90;;;;;;5094697;28;20200;-84
2022/05/12 08:52:43;;;;;;;7.60;3.07;;;18.00;99.90;;;;;;5094456;28;20620;-83
2022/05/12 08:55:15;;;;;;;7.60;3.00;;;18.00;99.90;;;;;;5094130;28;20645;-83
2022/05/12 08:57:47;;;;;;;8.30;3.17;;;17.70;99.90;;;;;;5094464;28;20202;-87
2022/05/12 09:00:16;;;;;;;8.20;3.67;;;17.50;99.90;;;;;;5099618;28;20215;-85
2022/05/12 09:02:53;;;;;;;6.60;3.47;;;17.60;99.90;;;;;;5094654;28;20201;-83
2022/05/12 09:05:23;;;;;;;6.80;3.27;;;17.70;99.90;;;;;;5094578;28;20212;-85
2022/05/12 09:07:54;;;;;;;6.63;3.50;;;18.10;99.90;;;;;;5093728;28;20199;-89
2022/05/12 09:10:33;;;;;;;8.13;3.53;;;18.30;99.90;;;;;;5094111;28;20196;-88
2022/05/12 09:13:03;;;;;;;5.20;3.10;;;18.30;99.90;;;;;;5094367;28;20607;-86
2022/05/12 09:15:32;;;;;;;8.63;3.67;;;18.40;99.90;;;;;;5094239;28;20217;-90
2022/05/12 09:18:02;;;;;;;5.67;2.83;;;18.50;99.90;;;;;;5094044;28;20197;-88
2022/05/12 09:20:31;;;;;;;8.37;3.50;;;18.70;99.90;;;;;;5094331;28;20193;-86
2022/05/12 09:22:58;;;;;;;7.23;3.80;;;19.00;99.90;;;;;;5094297;28;20590;-88
2022/05/12 09:25:33;;;;;;;11.97;3.90;;;19.00;99.90;;;;;;5094370;28;20240;-89
2022/05/12 09:28:18;;;;;;;11.50;3.40;;;18.90;99.90;;;;;;5094488;28;20587;-91
2022/05/12 09:30:46;;;;;;;9.13;3.60;;;18.90;99.90;;;;;;5094396;28;20206;-86
2022/05/12 09:33:24;;;;;;;8.73;3.30;;;18.70;99.90;;;;;;5093257;28;20418;-83
2022/05/12 09:35:56;;;;;;;11.00;4.23;;;18.50;99.90;;;;;;5093846;28;20684;-85
2022/05/12 09:38:26;;;;;;;9.53;4.10;;;18.50;99.90;;;;;;5093219;28;20629;-79
2022/05/12 09:40:53;;;;;;;7.37;3.83;;;18.50;99.90;;;;;;5092411;28;20206;-80
2022/05/12 09:43:28;;;;;;;12.87;4.50;;;18.40;99.90;;;;;;5093385;28;20202;-79
2022/05/12 09:46:20;;;;;;;14.27;4.97;;;18.30;99.90;;;;;;5093404;28;20651;-84
2022/05/12 09:48:49;;;;;;;10.77;4.40;;;18.40;99.90;;;;;;5093792;28;20202;-80
2022/05/12 09:51:32;;;;;;;12.47;5.00;;;18.50;99.90;;;;;;5093850;28;20672;-79
2022/05/12 09:54:26;;;;;;;11.60;3.87;;;18.40;99.90;;;;;;5093667;28;20201;-79
2022/05/12 09:57:15;;;;;;;12.17;4.10;;;18.40;99.90;;;;;;5091256;28;20200;-80
2022/05/12 09:59:45;;;;;;;10.83;3.73;;;18.70;99.90;;;;;;5093635;28;20653;-80
2022/05/12 10:08:16;;;;;;;7.90;3.30;;;18.90;99.90;;;;;;5093614;28;20579;-84
2022/05/12 10:10:43;;;;;;;9.00;4.10;;;18.70;99.90;;;;;;5093982;28;20205;-84
2022/05/12 10:13:22;;;;;;;8.97;3.27;;;18.60;99.90;;;;;;5094001;28;20202;-79
2022/05/12 10:15:50;;;;;;;11.83;3.67;;;18.70;99.90;;;;;;5094424;28;20214;-86
2022/05/12 10:18:21;;;;;;;6.23;3.30;;;18.90;99.90;;;;;;5094930;28;20205;-86
2022/05/12 10:20:54;;;;;;;9.90;3.70;;;18.70;99.90;;;;;;5097981;28;20201;-80
2022/05/12 10:23:27;;;;;;;6.20;3.17;;;18.50;99.90;;;;;;5097386;28;20201;-80
2022/05/12 10:26:02;;;;;;;6.63;2.90;;;18.70;99.90;;;;;;5097727;28;20186;-86
2022/05/12 10:28:49;;;;;;;8.67;2.83;;;18.90;99.90;;;;;;5097360;28;20653;-82
2022/05/12 10:31:25;;;;;;;9.77;2.80;;;18.90;99.90;;;;;;5097606;28;20202;-80
2022/05/12 10:34:00;;;;;;;8.73;3.13;;;18.80;99.90;;;;;;5097504;28;20210;-81
2022/05/12 10:36:45;;;;;;;7.63;3.33;;;18.80;99.90;;;;;;5097103;28;20565;-78
2022/05/12 10:39:21;;;;;;;9.60;3.80;;;18.70;99.90;;;;;;5097663;28;20202;-84
2022/05/12 10:42:02;;;;;;;10.23;3.83;;;19.00;99.90;;;;;;5097060;28;20206;-81
2022/05/12 10:45:01;;;;;;;8.13;3.55;;;19.20;99.90;;;;;;5097035;28;20429;-88
2022/05/12 10:47:41;;;;;;;6.00;3.10;;;19.40;99.90;;;;;;5091871;28;20202;-85
2022/05/12 10:50:16;;;;;;;8.43;3.63;;;19.50;99.90;;;;;;5097061;28;20203;-80
2022/05/12 10:53:03;;;;;;;11.27;4.13;;;19.30;99.90;;;;;;5097353;28;20203;-86
2022/05/12 10:55:46;;;;;;;9.23;4.30;;;19.10;99.90;;;;;;5096836;28;20226;-86
2022/05/12 10:58:26;;;;;;;8.60;3.83;;;19.00;99.90;;;;;;5097233;28;20201;-84
2022/05/12 11:01:12;;;;;;;11.50;3.77;;;19.00;99.90;;;;;;5096934;28;20197;-85
2022/05/12 11:03:44;;;;;;;7.30;3.80;;;18.80;99.90;;;;;;5096434;28;20200;-83
2022/05/12 11:06:16;;;;;;;12.43;4.23;;;19.10;99.90;;;;;;5096846;28;20194;-84
2022/05/12 11:08:47;;;;;;;7.10;3.63;;;19.20;99.90;;;;;;5096092;28;20670;-81
2022/05/12 11:11:18;;;;;;;7.33;3.30;;;19.50;99.90;;;;;;5096494;28;20219;-84
2022/05/12 11:13:50;;;;;;;9.17;3.50;;;19.50;99.90;;;;;;5096353;28;20576;-83
2022/05/12 11:16:21;;;;;;;10.40;3.00;;;19.70;99.90;;;;;;5096286;28;20220;-82
2022/05/12 11:18:52;;;;;;;13.40;3.60;;;19.70;99.90;;;;;;5096029;28;20207;-86
2022/05/12 11:21:23;;;;;;;8.17;2.90;;;19.70;99.90;;;;;;5096274;28;20210;-82
2022/05/12 11:24:21;;;;;;;6.90;2.80;;;19.60;99.90;;;;;;5096462;28;20201;-84
2022/05/12 11:27:03;;;;;;;2.97;2.27;;;19.50;99.90;;;;;;5096659;28;20240;-84
2022/05/12 11:29:48;;;;;;;9.03;2.37;;;19.50;99.90;;;;;;5095522;28;20204;-82
2022/05/12 11:32:29;;;;;;;9.47;2.50;;;19.60;99.90;;;;;;5096172;28;20292;-82
2022/05/12 11:35:01;;;;;;;4.37;2.13;;;19.50;99.90;;;;;;5095260;28;20228;-84
2022/05/12 11:37:53;;;;;;;8.73;2.33;;;19.50;99.90;;;;;;5096049;28;20231;-82
2022/05/12 11:40:49;;;;;;;3.73;1.77;;;19.90;99.90;;;;;;5096013;28;20260;-83
2022/05/12 11:46:41;;;;;;;6.50;2.20;;;20.30;99.90;;;;;;5095449;28;20354;-84
2022/05/12 11:49:26;;;;;;;3.70;1.90;;;20.30;99.90;;;;;;5095027;28;20236;-83
2022/05/12 11:52:01;;;;;;;7.77;1.80;;;20.30;99.90;;;;;;5077850;28;20202;-81
2022/05/12 11:54:34;;;;;;;8.67;2.20;;;20.30;99.90;;;;;;5074756;28;20212;-80
2022/05/12 11:57:05;;;;;;;4.72;2.20;;;20.60;98.30;;;;;;5074794;28;20443;-85
2022/05/12 11:59:48;;;;;;;3.60;2.23;;;20.80;98.60;;;;;;5074736;28;20205;-84
2022/05/12 12:02:39;;;;;;;10.30;2.23;;;20.80;98.50;;;;;;5074551;28;20230;-85
2022/05/12 12:05:08;;;;;;;6.33;2.43;;;21.00;98.50;;;;;;5074793;28;20216;-85
2022/05/12 12:08:02;;;;;;;9.07;2.00;;;20.90;99.20;;;;;;5074856;28;20285;-83
2022/05/12 12:10:34;;;;;;;7.37;1.90;;;20.90;99.30;;;;;;5075322;28;20192;-83
2022/05/12 12:13:33;;;;;;;5.70;2.10;;;20.70;98.30;;;;;;5075907;28;20209;-83
2022/05/12 12:16:11;;;;;;;4.00;2.10;;;20.50;98.50;;;;;;5074377;28;20276;-86
2022/05/12 12:18:51;;;;;;;4.70;1.70;;;20.50;98.50;;;;;;5074555;28;20668;-85
2022/05/12 12:21:48;;;;;;;6.63;2.10;;;20.40;98.90;;;;;;5075114;28;20277;-83
2022/05/12 12:24:38;;;;;;;11.27;2.40;;;20.40;99.30;;;;;;5074781;28;20666;-83
2022/05/12 12:27:34;;;;;;;4.80;2.30;;;20.50;98.90;;;;;;5074573;28;20200;-84
2022/05/12 12:30:25;;;;;;;7.53;2.07;;;20.30;98.70;;;;;;5074507;28;20204;-84
2022/05/12 12:33:12;;;;;;;9.43;2.60;;;20.40;99.30;;;;;;5074518;28;20675;-84
2022/05/12 12:36:00;;;;;;;6.40;2.43;;;20.40;99.30;;;;;;5074180;28;20296;-84
2022/05/12 12:39:07;;;;;;;8.13;1.90;;;20.70;99.70;;;;;;5074244;28;20228;-84
2022/05/12 12:41:45;;;;;;;4.13;1.83;;;21.20;98.60;;;;;;5073799;28;20205;-84
2022/05/12 12:44:23;;;;;;;6.10;2.03;;;21.20;98.20;;;;;;5074336;28;20208;-83
2022/05/12 12:47:44;;;;;;;4.57;2.30;;;21.20;97.80;;;;;;5073200;28;20558;-82
2022/05/12 12:50:29;;;;;;;4.30;1.70;;;21.30;98.10;;;;;;5007661;28;20207;-82
2022/05/12 12:56:35;;;;;;;9.47;2.03;;;21.60;97.80;;;;;;5125022;28;20551;-81
2022/05/12 12:59:06;;;;;;;6.67;1.70;;;21.90;98.20;;;;;;5110938;28;20194;-83
2022/05/12 13:01:41;;;;;;;6.47;1.97;;;22.10;97.40;;;;;;5111506;28;20701;-87
2022/05/12 13:04:10;;;;;;;6.67;2.30;;;22.00;97.60;;;;;;5111225;28;20552;-89
2022/05/12 13:06:39;;;;;;;8.33;2.27;;;21.60;97.70;;;;;;5130429;28;20200;-86
2022/05/12 13:09:13;;;;;;;4.73;1.93;;;21.00;98.30;;;;;;5131904;28;20574;-85
2022/05/12 13:11:42;;;;;;;4.45;2.30;;;20.80;98.90;;;;;;5129913;27;20436;-85
2022/05/12 13:14:11;;;;;;;8.17;2.07;;;20.70;98.60;;;;;;5130597;27;20215;-85
2022/05/12 13:16:41;;;;;;;4.67;1.93;;;20.80;98.80;;;;;;5130864;28;20245;-86
2022/05/12 13:19:09;;;;;;;16.13;2.40;;;20.70;98.90;;;;;;5131136;27;20204;-82
2022/05/12 13:21:38;;;;;;;4.17;2.27;;;21.00;98.80;;;;;;5130975;28;20254;-82
2022/05/12 13:24:12;;;;;;;3.17;1.53;;;21.00;99.20;;;;;;5131259;27;20207;-83